sensor_id;sensor_type;location;lat;lon;timestamp;P1;durP1;ratioP1;P2;durP2;ratioP2
29402;SDS011;16382;59.942;30.472;2023-03-20T00:00:55;16.15;;;9.27;;
29402;SDS011;16382;59.942;30.472;2023-03-20T00:03:23;15.45;;;8.77;;
29402;SDS011;16382;59.942;30.472;2023-03-20T00:05:51;12.38;;;8.40;;
29402;SDS011;16382;59.942;30.472;2023-03-20T00:08:19;13.57;;;8.65;;
29402;SDS011;16382;59.942;30.472;2023-03-20T00:10:46;16.67;;;8.60;;
29402;SDS011;16382;59.942;30.472;2023-03-20T00:13:17;16.25;;;8.52;;
29402;SDS011;16382;59.942;30.472;2023-03-20T00:15:52;13.10;;;8.98;;
29402;SDS011;16382;59.942;30.472;2023-03-20T00:18:20;16.58;;;8.85;;
29402;SDS011;16382;59.942;30.472;2023-03-20T00:20:51;15.95;;;8.50;;
29402;SDS011;16382;59.942;30.472;2023-03-20T00:23:19;14.40;;;8.45;;
29402;SDS011;16382;59.942;30.472;2023-03-20T00:25:47;15.25;;;8.48;;
29402;SDS011;16382;59.942;30.472;2023-03-20T00:31:13;14.50;;;7.97;;
29402;SDS011;16382;59.942;30.472;2023-03-20T00:33:52;12.23;;;8.32;;
29402;SDS011;16382;59.942;30.472;2023-03-20T00:36:22;14.07;;;8.05;;
29402;SDS011;16382;59.942;30.472;2023-03-20T00:38:50;13.50;;;8.60;;
29402;SDS011;16382;59.942;30.472;2023-03-20T00:41:20;13.23;;;7.80;;
29402;SDS011;16382;59.942;30.472;2023-03-20T00:43:51;14.52;;;7.68;;
29402;SDS011;16382;59.942;30.472;2023-03-20T00:46:21;12.80;;;7.93;;
29402;SDS011;16382;59.942;30.472;2023-03-20T00:48:49;11.77;;;7.97;;
29402;SDS011;16382;59.942;30.472;2023-03-20T00:51:18;15.85;;;7.32;;
29402;SDS011;16382;59.942;30.472;2023-03-20T00:53:46;12.30;;;7.70;;
29402;SDS011;16382;59.942;30.472;2023-03-20T00:56:21;11.57;;;7.78;;
29402;SDS011;16382;59.942;30.472;2023-03-20T00:58:57;11.93;;;7.20;;
29402;SDS011;16382;59.942;30.472;2023-03-20T01:01:26;11.43;;;7.50;;
29402;SDS011;16382;59.942;30.472;2023-03-20T01:03:56;17.15;;;8.13;;
29402;SDS011;16382;59.942;30.472;2023-03-20T01:06:23;14.90;;;8.40;;
29402;SDS011;16382;59.942;30.472;2023-03-20T01:08:53;14.55;;;7.78;;
29402;SDS011;16382;59.942;30.472;2023-03-20T01:11:24;14.20;;;7.50;;
29402;SDS011;16382;59.942;30.472;2023-03-20T01:13:51;12.77;;;7.82;;
29402;SDS011;16382;59.942;30.472;2023-03-20T01:16:20;13.18;;;7.95;;
29402;SDS011;16382;59.942;30.472;2023-03-20T01:18:49;12.13;;;8.13;;
29402;SDS011;16382;59.942;30.472;2023-03-20T01:21:19;12.15;;;8.27;;
29402;SDS011;16382;59.942;30.472;2023-03-20T01:23:50;13.75;;;7.45;;
29402;SDS011;16382;59.942;30.472;2023-03-20T01:26:19;11.13;;;7.68;;
29402;SDS011;16382;59.942;30.472;2023-03-20T01:28:50;14.68;;;8.05;;
29402;SDS011;16382;59.942;30.472;2023-03-20T01:31:18;11.57;;;7.97;;
29402;SDS011;16382;59.942;30.472;2023-03-20T01:33:46;12.68;;;8.13;;
29402;SDS011;16382;59.942;30.472;2023-03-20T01:36:14;12.63;;;7.78;;
29402;SDS011;16382;59.942;30.472;2023-03-20T01:38:48;11.18;;;7.95;;
29402;SDS011;16382;59.942;30.472;2023-03-20T01:41:21;16.90;;;8.88;;
29402;SDS011;16382;59.942;30.472;2023-03-20T01:43:51;11.48;;;7.63;;
29402;SDS011;16382;59.942;30.472;2023-03-20T01:46:21;11.23;;;7.20;;
29402;SDS011;16382;59.942;30.472;2023-03-20T01:48:58;13.93;;;7.65;;
29402;SDS011;16382;59.942;30.472;2023-03-20T01:51:34;14.32;;;8.73;;
29402;SDS011;16382;59.942;30.472;2023-03-20T01:54:09;13.60;;;8.85;;
29402;SDS011;16382;59.942;30.472;2023-03-20T01:56:49;13.13;;;7.80;;
29402;SDS011;16382;59.942;30.472;2023-03-20T01:59:21;16.65;;;8.35;;
29402;SDS011;16382;59.942;30.472;2023-03-20T02:01:54;15.75;;;8.10;;
29402;SDS011;16382;59.942;30.472;2023-03-20T02:04:25;14.98;;;9.20;;
29402;SDS011;16382;59.942;30.472;2023-03-20T02:07:04;19.45;;;11.10;;
29402;SDS011;16382;59.942;30.472;2023-03-20T02:09:43;13.95;;;8.43;;
29402;SDS011;16382;59.942;30.472;2023-03-20T02:12:18;13.32;;;8.10;;
29402;SDS011;16382;59.942;30.472;2023-03-20T02:14:48;11.73;;;8.15;;
29402;SDS011;16382;59.942;30.472;2023-03-20T02:17:51;13.20;;;7.63;;
29402;SDS011;16382;59.942;30.472;2023-03-20T02:20:21;13.05;;;8.18;;
29402;SDS011;16382;59.942;30.472;2023-03-20T02:26:28;17.00;;;9.00;;
29402;SDS011;16382;59.942;30.472;2023-03-20T02:32:16;13.65;;;7.90;;
29402;SDS011;16382;59.942;30.472;2023-03-20T02:41:26;15.33;;;8.27;;
29402;SDS011;16382;59.942;30.472;2023-03-20T02:43:59;11.33;;;8.53;;
29402;SDS011;16382;59.942;30.472;2023-03-20T02:46:35;18.02;;;9.60;;
29402;SDS011;16382;59.942;30.472;2023-03-20T02:49:22;12.75;;;8.20;;
29402;SDS011;16382;59.942;30.472;2023-03-20T02:52:09;15.40;;;8.18;;
29402;SDS011;16382;59.942;30.472;2023-03-20T02:54:45;13.30;;;9.15;;
29402;SDS011;16382;59.942;30.472;2023-03-20T02:57:27;11.07;;;8.00;;
29402;SDS011;16382;59.942;30.472;2023-03-20T03:00:08;14.57;;;8.93;;
29402;SDS011;16382;59.942;30.472;2023-03-20T03:02:43;11.52;;;8.55;;
29402;SDS011;16382;59.942;30.472;2023-03-20T03:05:18;12.18;;;8.65;;
29402;SDS011;16382;59.942;30.472;2023-03-20T03:07:49;13.50;;;8.23;;
29402;SDS011;16382;59.942;30.472;2023-03-20T03:10:25;13.60;;;8.32;;
29402;SDS011;16382;59.942;30.472;2023-03-20T03:12:56;14.32;;;7.97;;
29402;SDS011;16382;59.942;30.472;2023-03-20T03:15:29;12.05;;;8.07;;
29402;SDS011;16382;59.942;30.472;2023-03-20T03:18:00;17.80;;;8.25;;
29402;SDS011;16382;59.942;30.472;2023-03-20T03:20:31;14.13;;;8.10;;
29402;SDS011;16382;59.942;30.472;2023-03-20T03:23:03;15.05;;;8.88;;
29402;SDS011;16382;59.942;30.472;2023-03-20T03:25:34;13.43;;;8.30;;
29402;SDS011;16382;59.942;30.472;2023-03-20T03:28:06;16.35;;;8.23;;
29402;SDS011;16382;59.942;30.472;2023-03-20T03:30:47;15.85;;;8.60;;
29402;SDS011;16382;59.942;30.472;2023-03-20T03:33:21;14.77;;;7.70;;
29402;SDS011;16382;59.942;30.472;2023-03-20T03:35:52;20.47;;;8.17;;
29402;SDS011;16382;59.942;30.472;2023-03-20T03:38:29;14.68;;;8.50;;
29402;SDS011;16382;59.942;30.472;2023-03-20T03:41:08;13.05;;;8.43;;
29402;SDS011;16382;59.942;30.472;2023-03-20T03:43:46;13.43;;;8.10;;
29402;SDS011;16382;59.942;30.472;2023-03-20T03:46:23;18.10;;;9.00;;
29402;SDS011;16382;59.942;30.472;2023-03-20T03:48:58;16.48;;;8.70;;
29402;SDS011;16382;59.942;30.472;2023-03-20T03:51:28;15.13;;;8.95;;
29402;SDS011;16382;59.942;30.472;2023-03-20T03:54:04;16.98;;;9.43;;
29402;SDS011;16382;59.942;30.472;2023-03-20T03:56:38;21.02;;;8.02;;
29402;SDS011;16382;59.942;30.472;2023-03-20T03:59:09;16.95;;;9.00;;
29402;SDS011;16382;59.942;30.472;2023-03-20T04:01:45;19.73;;;9.55;;
29402;SDS011;16382;59.942;30.472;2023-03-20T04:04:15;21.67;;;9.88;;
29402;SDS011;16382;59.942;30.472;2023-03-20T04:06:55;15.20;;;9.10;;
29402;SDS011;16382;59.942;30.472;2023-03-20T04:09:22;18.08;;;9.50;;
29402;SDS011;16382;59.942;30.472;2023-03-20T04:11:52;21.50;;;10.07;;
29402;SDS011;16382;59.942;30.472;2023-03-20T04:14:19;18.88;;;10.38;;
29402;SDS011;16382;59.942;30.472;2023-03-20T04:16:47;18.20;;;11.07;;
29402;SDS011;16382;59.942;30.472;2023-03-20T04:19:14;21.27;;;12.05;;
29402;SDS011;16382;59.942;30.472;2023-03-20T04:21:45;26.42;;;12.20;;
29402;SDS011;16382;59.942;30.472;2023-03-20T04:24:14;20.42;;;12.75;;
29402;SDS011;16382;59.942;30.472;2023-03-20T04:26:41;20.42;;;10.93;;
29402;SDS011;16382;59.942;30.472;2023-03-20T04:29:11;21.73;;;10.45;;
29402;SDS011;16382;59.942;30.472;2023-03-20T04:31:50;20.10;;;11.48;;
29402;SDS011;16382;59.942;30.472;2023-03-20T04:34:31;21.98;;;11.18;;
29402;SDS011;16382;59.942;30.472;2023-03-20T04:37:20;16.30;;;10.50;;
29402;SDS011;16382;59.942;30.472;2023-03-20T04:40:05;19.42;;;10.75;;
29402;SDS011;16382;59.942;30.472;2023-03-20T04:42:41;27.25;;;12.48;;
29402;SDS011;16382;59.942;30.472;2023-03-20T04:45:13;25.45;;;13.05;;
29402;SDS011;16382;59.942;30.472;2023-03-20T04:47:42;23.50;;;12.55;;
29402;SDS011;16382;59.942;30.472;2023-03-20T04:50:10;25.83;;;13.05;;
29402;SDS011;16382;59.942;30.472;2023-03-20T04:52:39;21.55;;;12.18;;
29402;SDS011;16382;59.942;30.472;2023-03-20T04:55:06;29.02;;;13.05;;
29402;SDS011;16382;59.942;30.472;2023-03-20T04:57:35;26.77;;;13.80;;
29402;SDS011;16382;59.942;30.472;2023-03-20T05:00:04;25.13;;;14.43;;
29402;SDS011;16382;59.942;30.472;2023-03-20T05:02:34;27.73;;;12.98;;
29402;SDS011;16382;59.942;30.472;2023-03-20T05:05:02;28.30;;;13.73;;
29402;SDS011;16382;59.942;30.472;2023-03-20T05:07:33;25.63;;;13.45;;
29402;SDS011;16382;59.942;30.472;2023-03-20T05:10:06;25.83;;;13.63;;
29402;SDS011;16382;59.942;30.472;2023-03-20T05:12:49;24.80;;;13.23;;
29402;SDS011;16382;59.942;30.472;2023-03-20T05:15:22;28.20;;;15.25;;
29402;SDS011;16382;59.942;30.472;2023-03-20T05:18:09;27.60;;;14.45;;
29402;SDS011;16382;59.942;30.472;2023-03-20T05:20:55;30.17;;;14.30;;
29402;SDS011;16382;59.942;30.472;2023-03-20T05:23:58;28.70;;;14.27;;
29402;SDS011;16382;59.942;30.472;2023-03-20T05:26:44;27.48;;;14.43;;
29402;SDS011;16382;59.942;30.472;2023-03-20T05:29:34;21.90;;;13.43;;
29402;SDS011;16382;59.942;30.472;2023-03-20T05:32:33;45.33;;;19.23;;
29402;SDS011;16382;59.942;30.472;2023-03-20T05:35:28;20.25;;;12.02;;
29402;SDS011;16382;59.942;30.472;2023-03-20T05:38:02;19.42;;;11.60;;
29402;SDS011;16382;59.942;30.472;2023-03-20T05:40:48;23.25;;;11.95;;
29402;SDS011;16382;59.942;30.472;2023-03-20T05:43:26;24.02;;;13.23;;
29402;SDS011;16382;59.942;30.472;2023-03-20T05:46:17;20.35;;;12.18;;
29402;SDS011;16382;59.942;30.472;2023-03-20T05:48:59;23.58;;;12.98;;
29402;SDS011;16382;59.942;30.472;2023-03-20T05:51:42;42.00;;;17.55;;
29402;SDS011;16382;59.942;30.472;2023-03-20T05:54:21;25.10;;;14.77;;
29402;SDS011;16382;59.942;30.472;2023-03-20T05:56:58;25.40;;;14.98;;
29402;SDS011;16382;59.942;30.472;2023-03-20T05:59:45;25.55;;;13.85;;
29402;SDS011;16382;59.942;30.472;2023-03-20T06:02:31;26.95;;;12.60;;
29402;SDS011;16382;59.942;30.472;2023-03-20T06:05:10;23.58;;;13.82;;
29402;SDS011;16382;59.942;30.472;2023-03-20T06:07:47;24.00;;;13.07;;
29402;SDS011;16382;59.942;30.472;2023-03-20T06:10:15;25.02;;;12.82;;
29402;SDS011;16382;59.942;30.472;2023-03-20T06:12:45;31.35;;;14.55;;
29402;SDS011;16382;59.942;30.472;2023-03-20T06:15:13;21.48;;;13.35;;
29402;SDS011;16382;59.942;30.472;2023-03-20T06:17:50;25.35;;;14.13;;
29402;SDS011;16382;59.942;30.472;2023-03-20T06:20:19;21.75;;;13.40;;
29402;SDS011;16382;59.942;30.472;2023-03-20T06:22:48;29.98;;;14.63;;
29402;SDS011;16382;59.942;30.472;2023-03-20T06:25:21;23.77;;;13.50;;
29402;SDS011;16382;59.942;30.472;2023-03-20T06:27:49;23.65;;;13.63;;
29402;SDS011;16382;59.942;30.472;2023-03-20T06:30:18;23.42;;;13.88;;
29402;SDS011;16382;59.942;30.472;2023-03-20T06:32:48;25.40;;;13.30;;
29402;SDS011;16382;59.942;30.472;2023-03-20T06:35:17;20.45;;;13.55;;
29402;SDS011;16382;59.942;30.472;2023-03-20T06:37:48;32.17;;;14.80;;
29402;SDS011;16382;59.942;30.472;2023-03-20T06:40:21;26.92;;;14.77;;
29402;SDS011;16382;59.942;30.472;2023-03-20T06:42:49;26.23;;;15.30;;
29402;SDS011;16382;59.942;30.472;2023-03-20T06:45:17;28.10;;;15.15;;
29402;SDS011;16382;59.942;30.472;2023-03-20T06:47:55;21.85;;;14.13;;
29402;SDS011;16382;59.942;30.472;2023-03-20T06:50:23;24.00;;;13.93;;
29402;SDS011;16382;59.942;30.472;2023-03-20T06:52:53;30.80;;;15.25;;
29402;SDS011;16382;59.942;30.472;2023-03-20T06:55:41;26.02;;;14.82;;
29402;SDS011;16382;59.942;30.472;2023-03-20T06:58:09;31.80;;;15.07;;
29402;SDS011;16382;59.942;30.472;2023-03-20T07:00:36;29.60;;;14.88;;
29402;SDS011;16382;59.942;30.472;2023-03-20T07:03:07;27.00;;;13.63;;
29402;SDS011;16382;59.942;30.472;2023-03-20T07:05:36;30.83;;;15.60;;
29402;SDS011;16382;59.942;30.472;2023-03-20T07:08:08;30.08;;;14.80;;
29402;SDS011;16382;59.942;30.472;2023-03-20T07:10:37;30.48;;;14.60;;
29402;SDS011;16382;59.942;30.472;2023-03-20T07:13:05;25.13;;;14.40;;
29402;SDS011;16382;59.942;30.472;2023-03-20T07:15:34;28.60;;;15.18;;
29402;SDS011;16382;59.942;30.472;2023-03-20T07:18:03;29.10;;;14.57;;
29402;SDS011;16382;59.942;30.472;2023-03-20T07:20:32;25.27;;;15.20;;
29402;SDS011;16382;59.942;30.472;2023-03-20T07:23:00;23.05;;;15.00;;
29402;SDS011;16382;59.942;30.472;2023-03-20T07:25:32;27.83;;;14.63;;
29402;SDS011;16382;59.942;30.472;2023-03-20T07:28:00;34.35;;;14.25;;
29402;SDS011;16382;59.942;30.472;2023-03-20T07:30:28;30.15;;;14.38;;
29402;SDS011;16382;59.942;30.472;2023-03-20T07:32:55;33.72;;;14.65;;
29402;SDS011;16382;59.942;30.472;2023-03-20T07:35:27;34.22;;;15.13;;
29402;SDS011;16382;59.942;30.472;2023-03-20T07:37:55;26.15;;;14.55;;
29402;SDS011;16382;59.942;30.472;2023-03-20T07:40:23;33.20;;;14.73;;
29402;SDS011;16382;59.942;30.472;2023-03-20T07:43:03;25.40;;;15.30;;
29402;SDS011;16382;59.942;30.472;2023-03-20T07:46:00;29.70;;;14.60;;
29402;SDS011;16382;59.942;30.472;2023-03-20T07:48:28;30.05;;;14.88;;
29402;SDS011;16382;59.942;30.472;2023-03-20T07:50:55;29.75;;;14.48;;
29402;SDS011;16382;59.942;30.472;2023-03-20T07:53:23;25.77;;;13.88;;
29402;SDS011;16382;59.942;30.472;2023-03-20T07:55:50;20.02;;;13.55;;
29402;SDS011;16382;59.942;30.472;2023-03-20T07:58:19;24.02;;;13.50;;
29402;SDS011;16382;59.942;30.472;2023-03-20T08:00:46;30.15;;;14.68;;
29402;SDS011;16382;59.942;30.472;2023-03-20T08:03:14;27.33;;;14.07;;
29402;SDS011;16382;59.942;30.472;2023-03-20T08:05:42;32.45;;;13.98;;
29402;SDS011;16382;59.942;30.472;2023-03-20T08:08:09;29.63;;;13.80;;
29402;SDS011;16382;59.942;30.472;2023-03-20T08:10:37;35.65;;;15.15;;
29402;SDS011;16382;59.942;30.472;2023-03-20T08:13:04;26.05;;;13.85;;
29402;SDS011;16382;59.942;30.472;2023-03-20T08:15:33;26.38;;;13.52;;
29402;SDS011;16382;59.942;30.472;2023-03-20T08:18:00;30.17;;;14.27;;
29402;SDS011;16382;59.942;30.472;2023-03-20T08:20:28;28.75;;;15.70;;
29402;SDS011;16382;59.942;30.472;2023-03-20T08:22:56;37.00;;;16.48;;
29402;SDS011;16382;59.942;30.472;2023-03-20T08:25:23;29.17;;;15.90;;
29402;SDS011;16382;59.942;30.472;2023-03-20T08:27:51;24.50;;;15.18;;
29402;SDS011;16382;59.942;30.472;2023-03-20T08:30:18;32.97;;;15.80;;
29402;SDS011;16382;59.942;30.472;2023-03-20T08:32:47;27.38;;;15.77;;
29402;SDS011;16382;59.942;30.472;2023-03-20T08:35:15;30.13;;;15.43;;
29402;SDS011;16382;59.942;30.472;2023-03-20T08:37:43;28.80;;;15.60;;
29402;SDS011;16382;59.942;30.472;2023-03-20T08:40:11;29.63;;;13.98;;
29402;SDS011;16382;59.942;30.472;2023-03-20T08:42:38;29.63;;;14.10;;
29402;SDS011;16382;59.942;30.472;2023-03-20T08:45:06;27.27;;;14.15;;
29402;SDS011;16382;59.942;30.472;2023-03-20T08:47:35;33.70;;;14.23;;
29402;SDS011;16382;59.942;30.472;2023-03-20T08:50:05;24.60;;;14.60;;
29402;SDS011;16382;59.942;30.472;2023-03-20T08:52:33;31.55;;;15.98;;
29402;SDS011;16382;59.942;30.472;2023-03-20T08:55:01;26.45;;;13.57;;
29402;SDS011;16382;59.942;30.472;2023-03-20T08:57:29;27.08;;;15.57;;
29402;SDS011;16382;59.942;30.472;2023-03-20T08:59:56;30.35;;;14.73;;
29402;SDS011;16382;59.942;30.472;2023-03-20T09:02:24;33.95;;;16.27;;
29402;SDS011;16382;59.942;30.472;2023-03-20T09:04:51;33.28;;;16.27;;
29402;SDS011;16382;59.942;30.472;2023-03-20T09:07:21;38.42;;;16.33;;
29402;SDS011;16382;59.942;30.472;2023-03-20T09:09:49;31.50;;;15.90;;
29402;SDS011;16382;59.942;30.472;2023-03-20T09:12:16;30.38;;;16.90;;
29402;SDS011;16382;59.942;30.472;2023-03-20T09:14:44;35.05;;;17.42;;
29402;SDS011;16382;59.942;30.472;2023-03-20T09:17:12;30.58;;;17.88;;
29402;SDS011;16382;59.942;30.472;2023-03-20T09:19:40;40.03;;;17.45;;
29402;SDS011;16382;59.942;30.472;2023-03-20T09:22:09;36.35;;;17.52;;
29402;SDS011;16382;59.942;30.472;2023-03-20T09:24:40;31.25;;;17.02;;
29402;SDS011;16382;59.942;30.472;2023-03-20T09:27:08;36.63;;;17.17;;
29402;SDS011;16382;59.942;30.472;2023-03-20T09:29:38;31.27;;;16.73;;
29402;SDS011;16382;59.942;30.472;2023-03-20T09:32:05;32.38;;;17.00;;
29402;SDS011;16382;59.942;30.472;2023-03-20T09:34:33;32.03;;;16.73;;
29402;SDS011;16382;59.942;30.472;2023-03-20T09:37:01;30.13;;;17.65;;
29402;SDS011;16382;59.942;30.472;2023-03-20T09:39:28;27.25;;;15.68;;
29402;SDS011;16382;59.942;30.472;2023-03-20T09:41:58;31.83;;;18.83;;
29402;SDS011;16382;59.942;30.472;2023-03-20T09:44:40;31.55;;;17.13;;
29402;SDS011;16382;59.942;30.472;2023-03-20T09:47:17;28.40;;;17.55;;
29402;SDS011;16382;59.942;30.472;2023-03-20T09:49:59;31.65;;;16.88;;
29402;SDS011;16382;59.942;30.472;2023-03-20T09:52:39;24.77;;;16.13;;
29402;SDS011;16382;59.942;30.472;2023-03-20T09:55:20;30.45;;;16.80;;
29402;SDS011;16382;59.942;30.472;2023-03-20T09:57:57;32.17;;;18.15;;
29402;SDS011;16382;59.942;30.472;2023-03-20T10:00:34;35.40;;;17.55;;
29402;SDS011;16382;59.942;30.472;2023-03-20T10:03:03;29.15;;;17.30;;
29402;SDS011;16382;59.942;30.472;2023-03-20T10:05:34;24.15;;;16.58;;
29402;SDS011;16382;59.942;30.472;2023-03-20T10:08:05;28.50;;;16.25;;
29402;SDS011;16382;59.942;30.472;2023-03-20T10:10:41;28.85;;;16.40;;
29402;SDS011;16382;59.942;30.472;2023-03-20T10:16:31;35.72;;;16.50;;
29402;SDS011;16382;59.942;30.472;2023-03-20T10:19:14;28.02;;;16.05;;
29402;SDS011;16382;59.942;30.472;2023-03-20T10:21:55;32.80;;;17.40;;
29402;SDS011;16382;59.942;30.472;2023-03-20T10:24:28;25.75;;;15.75;;
29402;SDS011;16382;59.942;30.472;2023-03-20T10:27:04;23.33;;;15.05;;
29402;SDS011;16382;59.942;30.472;2023-03-20T10:29:44;27.52;;;16.25;;
29402;SDS011;16382;59.942;30.472;2023-03-20T10:32:22;24.23;;;15.52;;
29402;SDS011;16382;59.942;30.472;2023-03-20T10:35:03;38.35;;;16.55;;
29402;SDS011;16382;59.942;30.472;2023-03-20T10:37:47;25.17;;;15.27;;
29402;SDS011;16382;59.942;30.472;2023-03-20T10:40:33;29.40;;;14.07;;
29402;SDS011;16382;59.942;30.472;2023-03-20T10:43:05;19.95;;;14.43;;
29402;SDS011;16382;59.942;30.472;2023-03-20T10:45:44;23.92;;;13.75;;
29402;SDS011;16382;59.942;30.472;2023-03-20T10:48:16;19.90;;;14.00;;
29402;SDS011;16382;59.942;30.472;2023-03-20T10:50:52;23.08;;;13.82;;
29402;SDS011;16382;59.942;30.472;2023-03-20T10:53:24;21.98;;;14.13;;
29402;SDS011;16382;59.942;30.472;2023-03-20T10:55:58;24.90;;;14.35;;
29402;SDS011;16382;59.942;30.472;2023-03-20T10:58:31;17.45;;;13.23;;
29402;SDS011;16382;59.942;30.472;2023-03-20T11:01:06;22.92;;;14.23;;
29402;SDS011;16382;59.942;30.472;2023-03-20T11:03:33;17.85;;;13.90;;
29402;SDS011;16382;59.942;30.472;2023-03-20T11:06:05;21.67;;;14.63;;
29402;SDS011;16382;59.942;30.472;2023-03-20T11:08:40;28.75;;;14.43;;
29402;SDS011;16382;59.942;30.472;2023-03-20T11:11:13;21.60;;;14.82;;
29402;SDS011;16382;59.942;30.472;2023-03-20T11:13:49;20.95;;;14.50;;
29402;SDS011;16382;59.942;30.472;2023-03-20T11:16:19;21.67;;;15.13;;
29402;SDS011;16382;59.942;30.472;2023-03-20T11:21:23;29.42;;;16.35;;
29402;SDS011;16382;59.942;30.472;2023-03-20T11:23:54;26.63;;;15.23;;
29402;SDS011;16382;59.942;30.472;2023-03-20T11:26:27;19.73;;;14.40;;
29402;SDS011;16382;59.942;30.472;2023-03-20T11:29:05;23.33;;;15.05;;
29402;SDS011;16382;59.942;30.472;2023-03-20T11:31:38;25.38;;;15.85;;
29402;SDS011;16382;59.942;30.472;2023-03-20T11:34:14;31.30;;;15.15;;
29402;SDS011;16382;59.942;30.472;2023-03-20T11:36:54;21.83;;;15.15;;
29402;SDS011;16382;59.942;30.472;2023-03-20T11:39:24;25.38;;;14.13;;
29402;SDS011;16382;59.942;30.472;2023-03-20T11:41:58;18.88;;;13.07;;
29402;SDS011;16382;59.942;30.472;2023-03-20T11:44:30;19.58;;;13.57;;
29402;SDS011;16382;59.942;30.472;2023-03-20T11:47:03;23.75;;;14.18;;
29402;SDS011;16382;59.942;30.472;2023-03-20T11:49:43;23.85;;;13.30;;
29402;SDS011;16382;59.942;30.472;2023-03-20T11:52:16;21.05;;;13.48;;
29402;SDS011;16382;59.942;30.472;2023-03-20T11:54:53;15.15;;;12.55;;
29402;SDS011;16382;59.942;30.472;2023-03-20T11:57:30;16.98;;;13.57;;
29402;SDS011;16382;59.942;30.472;2023-03-20T12:00:01;17.40;;;13.75;;
29402;SDS011;16382;59.942;30.472;2023-03-20T12:02:47;21.63;;;13.47;;
29402;SDS011;16382;59.942;30.472;2023-03-20T12:05:26;24.08;;;14.73;;
29402;SDS011;16382;59.942;30.472;2023-03-20T12:07:59;22.27;;;14.13;;
29402;SDS011;16382;59.942;30.472;2023-03-20T12:10:33;20.13;;;14.02;;
29402;SDS011;16382;59.942;30.472;2023-03-20T12:13:05;23.00;;;15.27;;
29402;SDS011;16382;59.942;30.472;2023-03-20T12:15:39;25.58;;;14.15;;
29402;SDS011;16382;59.942;30.472;2023-03-20T12:18:16;21.88;;;14.43;;
29402;SDS011;16382;59.942;30.472;2023-03-20T12:20:53;26.17;;;14.23;;
29402;SDS011;16382;59.942;30.472;2023-03-20T12:23:34;18.88;;;14.15;;
29402;SDS011;16382;59.942;30.472;2023-03-20T12:26:09;25.02;;;13.23;;
29402;SDS011;16382;59.942;30.472;2023-03-20T12:28:40;20.77;;;13.00;;
29402;SDS011;16382;59.942;30.472;2023-03-20T12:31:20;17.80;;;12.75;;
29402;SDS011;16382;59.942;30.472;2023-03-20T12:33:56;19.50;;;13.35;;
29402;SDS011;16382;59.942;30.472;2023-03-20T12:36:28;22.15;;;12.75;;
29402;SDS011;16382;59.942;30.472;2023-03-20T12:39:00;21.02;;;12.77;;
29402;SDS011;16382;59.942;30.472;2023-03-20T12:41:32;18.83;;;12.02;;
29402;SDS011;16382;59.942;30.472;2023-03-20T12:44:09;25.63;;;13.32;;
29402;SDS011;16382;59.942;30.472;2023-03-20T12:46:46;26.35;;;13.73;;
29402;SDS011;16382;59.942;30.472;2023-03-20T12:49:30;21.25;;;13.32;;
29402;SDS011;16382;59.942;30.472;2023-03-20T12:52:09;25.95;;;13.63;;
29402;SDS011;16382;59.942;30.472;2023-03-20T12:57:38;30.58;;;14.82;;
29402;SDS011;16382;59.942;30.472;2023-03-20T13:00:19;21.08;;;13.43;;
29402;SDS011;16382;59.942;30.472;2023-03-20T13:03:00;19.92;;;13.23;;
29402;SDS011;16382;59.942;30.472;2023-03-20T13:06:01;23.35;;;13.95;;
29402;SDS011;16382;59.942;30.472;2023-03-20T13:08:42;25.52;;;14.70;;
29402;SDS011;16382;59.942;30.472;2023-03-20T13:11:35;27.33;;;14.38;;
29402;SDS011;16382;59.942;30.472;2023-03-20T13:14:12;24.50;;;14.32;;
29402;SDS011;16382;59.942;30.472;2023-03-20T13:16:48;24.85;;;13.68;;
29402;SDS011;16382;59.942;30.472;2023-03-20T13:19:24;24.85;;;13.63;;
29402;SDS011;16382;59.942;30.472;2023-03-20T13:22:00;22.83;;;13.68;;
29402;SDS011;16382;59.942;30.472;2023-03-20T13:24:35;22.45;;;13.07;;
29402;SDS011;16382;59.942;30.472;2023-03-20T13:27:11;20.30;;;13.25;;
29402;SDS011;16382;59.942;30.472;2023-03-20T13:29:50;23.30;;;12.68;;
29402;SDS011;16382;59.942;30.472;2023-03-20T13:32:25;22.55;;;13.88;;
29402;SDS011;16382;59.942;30.472;2023-03-20T13:35:13;26.02;;;13.25;;
29402;SDS011;16382;59.942;30.472;2023-03-20T13:37:55;23.35;;;14.57;;
29402;SDS011;16382;59.942;30.472;2023-03-20T13:40:28;23.98;;;13.45;;
29402;SDS011;16382;59.942;30.472;2023-03-20T13:43:00;24.60;;;14.30;;
29402;SDS011;16382;59.942;30.472;2023-03-20T13:45:40;19.45;;;12.15;;
29402;SDS011;16382;59.942;30.472;2023-03-20T13:48:14;25.13;;;13.73;;
29402;SDS011;16382;59.942;30.472;2023-03-20T13:50:54;19.90;;;12.57;;
29402;SDS011;16382;59.942;30.472;2023-03-20T13:53:36;24.52;;;13.38;;
29402;SDS011;16382;59.942;30.472;2023-03-20T13:56:21;23.00;;;13.68;;
29402;SDS011;16382;59.942;30.472;2023-03-20T13:58:59;25.35;;;13.05;;
29402;SDS011;16382;59.942;30.472;2023-03-20T14:02:11;26.90;;;14.70;;
29402;SDS011;16382;59.942;30.472;2023-03-20T14:05:00;24.67;;;13.90;;
29402;SDS011;16382;59.942;30.472;2023-03-20T14:07:33;22.30;;;12.88;;
29402;SDS011;16382;59.942;30.472;2023-03-20T14:13:10;21.35;;;13.23;;
29402;SDS011;16382;59.942;30.472;2023-03-20T14:15:44;19.88;;;13.65;;
29402;SDS011;16382;59.942;30.472;2023-03-20T14:18:20;24.83;;;13.95;;
29402;SDS011;16382;59.942;30.472;2023-03-20T14:20:51;25.00;;;15.27;;
29402;SDS011;16382;59.942;30.472;2023-03-20T14:23:31;27.80;;;14.23;;
29402;SDS011;16382;59.942;30.472;2023-03-20T14:26:08;22.27;;;14.32;;
29402;SDS011;16382;59.942;30.472;2023-03-20T14:28:57;27.35;;;15.30;;
29402;SDS011;16382;59.942;30.472;2023-03-20T14:31:28;27.25;;;14.63;;
29402;SDS011;16382;59.942;30.472;2023-03-20T14:36:54;29.85;;;14.57;;
29402;SDS011;16382;59.942;30.472;2023-03-20T14:42:23;22.00;;;14.38;;
29402;SDS011;16382;59.942;30.472;2023-03-20T14:48:05;27.60;;;15.38;;
29402;SDS011;16382;59.942;30.472;2023-03-20T14:50:49;29.17;;;16.35;;
29402;SDS011;16382;59.942;30.472;2023-03-20T14:53:31;26.08;;;16.20;;
29402;SDS011;16382;59.942;30.472;2023-03-20T14:56:06;31.55;;;14.75;;
29402;SDS011;16382;59.942;30.472;2023-03-20T14:58:42;25.98;;;14.63;;
29402;SDS011;16382;59.942;30.472;2023-03-20T15:01:23;25.30;;;14.68;;
29402;SDS011;16382;59.942;30.472;2023-03-20T15:03:55;26.35;;;14.65;;
29402;SDS011;16382;59.942;30.472;2023-03-20T15:06:25;27.33;;;15.90;;
29402;SDS011;16382;59.942;30.472;2023-03-20T15:08:55;26.38;;;14.68;;
29402;SDS011;16382;59.942;30.472;2023-03-20T15:11:27;26.40;;;14.07;;
29402;SDS011;16382;59.942;30.472;2023-03-20T15:13:56;26.33;;;13.90;;
29402;SDS011;16382;59.942;30.472;2023-03-20T15:16:26;26.77;;;14.85;;
29402;SDS011;16382;59.942;30.472;2023-03-20T15:18:55;30.45;;;14.20;;
29402;SDS011;16382;59.942;30.472;2023-03-20T15:21:26;28.85;;;13.52;;
29402;SDS011;16382;59.942;30.472;2023-03-20T15:23:59;31.33;;;14.30;;
29402;SDS011;16382;59.942;30.472;2023-03-20T15:26:27;26.23;;;13.88;;